Time;durP1;ratioP1;P1;durP2;ratioP2;P2;SDS_P1;SDS_P2;PMS_P1;PMS_P2;Temp;Humidity;BMP_temperature;BMP_pressure;BME280_temperature;BME280_humidity;BME280_pressure;Samples;Min_cycle;Max_cycle;Signal;HPM_P1;HPM_P2
2022/07/21 00:00:26;;;;;;;3.83;2.70;;;21.30;71.00;;;;;;6073577;23;20252;-80
2022/07/21 00:02:52;;;;;;;4.32;2.90;;;21.40;71.30;;;;;;6086133;23;20068;-79
2022/07/21 00:05:18;;;;;;;6.10;3.50;;;21.40;71.20;;;;;;6075292;23;20021;-80
2022/07/21 00:07:44;;;;;;;4.85;3.15;;;21.30;71.30;;;;;;6057460;23;20018;-80
2022/07/21 00:10:10;;;;;;;4.35;3.05;;;21.40;71.40;;;;;;6098661;23;20021;-79
2022/07/21 00:12:36;;;;;;;5.70;3.47;;;21.40;71.50;;;;;;6105753;23;20683;-80
2022/07/21 00:15:03;;;;;;;5.65;3.47;;;21.40;71.80;;;;;;6072173;23;20018;-79
2022/07/21 00:17:29;;;;;;;4.88;3.53;;;21.40;72.00;;;;;;6104691;23;20040;-80
2022/07/21 00:19:54;;;;;;;5.73;3.63;;;21.40;72.00;;;;;;6076938;23;20005;-80
2022/07/21 00:22:20;;;;;;;5.57;3.83;;;21.40;72.30;;;;;;6093043;23;20312;-79
2022/07/21 00:24:46;;;;;;;5.37;3.60;;;21.40;72.50;;;;;;6071016;23;20025;-80
2022/07/21 00:27:11;;;;;;;5.80;3.40;;;21.40;72.50;;;;;;6101764;23;20100;-80
2022/07/21 00:29:37;;;;;;;4.87;3.50;;;21.40;72.70;;;;;;6071522;23;20062;-80
2022/07/21 00:32:05;;;;;;;5.60;3.70;;;21.40;72.80;;;;;;6102986;23;20013;-80
2022/07/21 00:34:31;;;;;;;4.40;3.30;;;21.50;73.00;;;;;;6079692;23;20010;-80
2022/07/21 00:36:57;;;;;;;5.45;3.50;;;21.50;73.00;;;;;;6100350;23;20017;-80
2022/07/21 00:39:23;;;;;;;5.47;3.50;;;21.50;73.00;;;;;;6112011;23;20039;-79
2022/07/21 00:41:49;;;;;;;5.63;3.23;;;21.50;73.00;;;;;;6093218;23;20010;-81
2022/07/21 00:44:26;;;;;;;4.43;3.22;;;21.60;73.10;;;;;;6071491;23;20521;-82
2022/07/21 00:46:53;;;;;;;5.80;3.22;;;21.60;74.10;;;;;;6105309;23;20248;-82
2022/07/21 00:49:19;;;;;;;4.57;3.07;;;21.60;73.00;;;;;;6109714;23;20018;-81
2022/07/21 00:51:45;;;;;;;5.25;3.05;;;21.60;73.00;;;;;;6099828;23;20038;-82
2022/07/21 00:54:12;;;;;;;5.10;3.63;;;21.60;73.00;;;;;;6101101;23;20021;-82
2022/07/21 00:56:38;;;;;;;5.10;3.58;;;21.60;73.10;;;;;;6076517;23;20014;-82
2022/07/21 00:59:03;;;;;;;4.30;2.93;;;21.60;73.00;;;;;;6063935;23;20064;-82
2022/07/21 01:01:29;;;;;;;3.97;3.00;;;21.60;73.00;;;;;;6110382;23;20022;-82
2022/07/21 01:03:55;;;;;;;5.30;3.20;;;21.60;73.00;;;;;;6097828;23;20014;-81
2022/07/21 01:06:23;;;;;;;5.72;3.20;;;21.60;73.00;;;;;;6111051;23;20017;-82
2022/07/21 01:08:48;;;;;;;4.23;2.90;;;21.60;73.10;;;;;;6095879;23;20423;-82
2022/07/21 01:11:15;;;;;;;5.13;2.90;;;21.60;73.10;;;;;;6102115;23;20017;-82
2022/07/21 01:13:41;;;;;;;4.70;3.20;;;21.60;73.30;;;;;;6101488;23;20010;-82
2022/07/21 01:16:08;;;;;;;4.67;2.90;;;21.60;73.20;;;;;;6068784;23;20258;-81
2022/07/21 01:18:34;;;;;;;4.63;3.20;;;21.60;73.30;;;;;;6111213;23;20494;-82
2022/07/21 01:21:06;;;;;;;4.57;2.90;;;21.60;73.10;;;;;;6101995;23;20022;-82
2022/07/21 01:23:33;;;;;;;5.35;3.10;;;21.60;73.30;;;;;;6080512;23;20018;-82
2022/07/21 01:25:59;;;;;;;4.18;2.92;;;21.60;73.00;;;;;;6096641;23;20429;-80
2022/07/21 01:28:24;;;;;;;5.53;3.20;;;21.60;73.10;;;;;;6080649;23;20018;-79
2022/07/21 01:30:50;;;;;;;4.57;2.70;;;21.50;73.10;;;;;;6093386;23;20506;-79
2022/07/21 01:33:16;;;;;;;4.33;2.70;;;21.50;73.10;;;;;;6086299;23;20053;-80
2022/07/21 01:35:42;;;;;;;4.90;2.70;;;21.50;73.10;;;;;;6083443;23;20495;-79
2022/07/21 01:41:28;;;;;;;5.90;2.90;;;21.50;73.10;;;;;;6102061;23;20035;-79
2022/07/21 01:43:44;;;;;;;4.18;2.70;;;21.40;73.70;;;;;;6106398;23;20432;-80
2022/07/21 01:46:12;;;;;;;4.47;2.67;;;21.40;73.00;;;;;;6075134;23;20175;-80
2022/07/21 01:48:45;;;;;;;3.63;2.50;;;21.40;73.10;;;;;;6097171;23;20439;-80
2022/07/21 01:51:11;;;;;;;4.00;2.38;;;21.40;73.50;;;;;;6085068;23;20009;-79
2022/07/21 01:53:38;;;;;;;4.00;2.50;;;21.40;73.10;;;;;;6084376;23;20368;-80
2022/07/21 01:56:04;;;;;;;5.70;2.45;;;21.40;73.30;;;;;;6071162;23;20199;-80
2022/07/21 01:58:30;;;;;;;4.22;2.53;;;21.30;73.30;;;;;;6111675;23;20021;-80
2022/07/21 02:00:56;;;;;;;4.37;2.50;;;21.30;73.40;;;;;;6101056;23;20022;-80
2022/07/21 02:03:21;;;;;;;3.47;2.33;;;21.30;73.30;;;;;;6100807;23;20768;-79
2022/07/21 02:05:47;;;;;;;5.33;2.70;;;21.30;73.40;;;;;;6108270;23;20010;-79
2022/07/21 02:08:13;;;;;;;3.28;2.67;;;21.30;73.40;;;;;;6086637;23;20560;-79
2022/07/21 02:10:38;;;;;;;3.70;2.67;;;21.30;73.40;;;;;;6082889;23;20089;-79
2022/07/21 02:13:04;;;;;;;3.80;2.40;;;21.30;73.40;;;;;;6073794;23;20084;-80
2022/07/21 02:15:30;;;;;;;4.17;2.50;;;21.30;73.70;;;;;;6056167;23;20045;-79
2022/07/21 02:17:57;;;;;;;5.18;2.53;;;21.30;73.60;;;;;;6087827;23;20437;-80
2022/07/21 02:20:23;;;;;;;4.20;2.50;;;21.20;73.60;;;;;;6111133;23;20036;-79
2022/07/21 02:22:48;;;;;;;6.68;2.70;;;21.30;73.70;;;;;;6100586;23;20020;-79
2022/07/21 02:25:14;;;;;;;4.07;2.30;;;21.30;73.80;;;;;;6110034;23;20072;-80
2022/07/21 02:27:41;;;;;;;3.63;2.45;;;21.20;73.70;;;;;;6104367;23;20065;-79
2022/07/21 02:30:07;;;;;;;4.93;2.30;;;21.20;73.90;;;;;;6096383;23;20989;-80
2022/07/21 02:32:33;;;;;;;3.75;2.40;;;21.20;73.70;;;;;;6084811;23;20014;-79
2022/07/21 02:34:59;;;;;;;3.65;2.53;;;21.20;73.90;;;;;;6087642;23;20290;-79
2022/07/21 02:37:24;;;;;;;4.53;2.40;;;21.20;73.90;;;;;;6111180;23;20041;-79
2022/07/21 02:39:50;;;;;;;3.57;2.30;;;21.20;74.00;;;;;;6107852;23;20017;-79
2022/07/21 02:42:16;;;;;;;3.90;2.65;;;21.20;74.10;;;;;;6063334;23;20221;-80
2022/07/21 02:44:41;;;;;;;3.83;2.37;;;21.20;74.10;;;;;;6085380;23;20006;-79
2022/07/21 02:47:07;;;;;;;5.30;2.53;;;21.20;74.20;;;;;;6094205;23;20245;-79
2022/07/21 02:49:32;;;;;;;3.80;2.13;;;21.20;74.20;;;;;;6067290;23;20581;-80
2022/07/21 02:51:58;;;;;;;3.67;2.30;;;21.20;74.20;;;;;;6086011;23;20461;-80
2022/07/21 02:54:24;;;;;;;3.80;2.23;;;21.20;74.20;;;;;;6081173;23;20036;-79
2022/07/21 02:56:49;;;;;;;3.97;2.33;;;21.20;74.20;;;;;;6085486;23;20006;-80
2022/07/21 02:59:16;;;;;;;4.53;2.57;;;21.20;74.40;;;;;;6093913;23;20022;-79
2022/07/21 03:01:41;;;;;;;4.28;2.47;;;21.20;74.40;;;;;;6078391;23;20026;-79
2022/07/21 03:04:07;;;;;;;4.20;2.50;;;21.20;74.40;;;;;;6079403;23;20016;-79
2022/07/21 03:06:33;;;;;;;3.88;2.28;;;21.20;74.50;;;;;;6097343;23;20014;-79
2022/07/21 03:08:59;;;;;;;5.22;2.92;;;21.20;74.50;;;;;;6085097;23;20021;-79
2022/07/21 03:11:25;;;;;;;3.90;2.40;;;21.20;74.60;;;;;;6081793;23;20225;-79
2022/07/21 03:13:50;;;;;;;4.47;2.47;;;21.20;74.50;;;;;;6105023;23;20341;-79
2022/07/21 03:16:16;;;;;;;4.40;2.60;;;21.10;74.50;;;;;;6100660;23;20014;-79
2022/07/21 03:18:41;;;;;;;3.25;2.30;;;21.10;74.50;;;;;;6106138;23;20592;-80
2022/07/21 03:21:08;;;;;;;4.00;2.50;;;21.10;74.40;;;;;;6076177;23;20006;-80
2022/07/21 03:23:33;;;;;;;3.40;2.38;;;21.10;74.40;;;;;;6104388;23;20013;-79
2022/07/21 03:25:59;;;;;;;3.93;2.27;;;21.10;74.40;;;;;;6084183;23;20366;-80
2022/07/21 03:28:25;;;;;;;3.63;2.20;;;21.00;74.40;;;;;;6101986;23;20132;-79
2022/07/21 03:30:50;;;;;;;4.10;2.30;;;21.00;74.40;;;;;;6083745;23;20518;-80
2022/07/21 03:33:16;;;;;;;3.38;2.10;;;21.00;74.40;;;;;;6073777;23;20061;-79
2022/07/21 03:35:42;;;;;;;3.57;2.20;;;21.00;74.40;;;;;;6105548;23;20037;-80
2022/07/21 03:38:07;;;;;;;4.45;2.20;;;20.90;74.50;;;;;;6071232;23;20025;-80
2022/07/21 03:40:35;;;;;;;4.00;2.07;;;20.90;74.50;;;;;;6083240;23;20169;-80
2022/07/21 03:43:02;;;;;;;4.32;2.30;;;20.90;74.50;;;;;;6085076;23;20017;-79
2022/07/21 03:45:30;;;;;;;3.95;2.30;;;20.90;74.60;;;;;;6102718;23;20073;-80
2022/07/21 03:47:57;;;;;;;4.30;2.20;;;20.90;74.60;;;;;;6078531;23;20014;-80
2022/07/21 03:50:24;;;;;;;6.10;2.40;;;20.90;74.70;;;;;;6068979;23;20272;-79
2022/07/21 03:52:50;;;;;;;3.85;2.25;;;20.80;74.70;;;;;;6099404;23;20069;-80
2022/07/21 03:55:17;;;;;;;3.47;2.13;;;20.80;75.60;;;;;;6106768;23;20010;-79
2022/07/21 03:57:49;;;;;;;3.53;2.13;;;20.80;75.00;;;;;;6084829;23;20021;-79
2022/07/21 04:00:37;;;;;;;3.80;2.00;;;20.80;76.20;;;;;;6069463;23;20379;-79
2022/07/21 04:03:03;;;;;;;4.60;2.40;;;20.80;76.30;;;;;;6092162;23;20022;-80
2022/07/21 04:05:29;;;;;;;5.38;2.42;;;20.90;75.30;;;;;;6095832;23;20020;-79
2022/07/21 04:07:56;;;;;;;4.85;2.30;;;20.90;75.50;;;;;;6098424;23;20942;-80
2022/07/21 04:10:24;;;;;;;4.03;2.30;;;20.80;75.50;;;;;;6107571;23;20386;-79
2022/07/21 04:12:50;;;;;;;3.53;2.30;;;20.90;75.80;;;;;;6082253;23;20029;-80
2022/07/21 04:15:17;;;;;;;6.35;2.83;;;20.90;75.70;;;;;;6090454;23;20014;-79
2022/07/21 04:17:43;;;;;;;4.40;2.50;;;20.90;75.70;;;;;;6108934;23;20037;-80
2022/07/21 04:20:11;;;;;;;4.65;2.70;;;21.00;75.80;;;;;;6100747;23;20010;-79
2022/07/21 04:22:37;;;;;;;4.67;2.57;;;21.00;76.00;;;;;;6103729;23;20481;-79
2022/07/21 04:25:05;;;;;;;4.70;2.67;;;21.00;76.00;;;;;;6093422;23;20455;-80
2022/07/21 04:27:31;;;;;;;4.00;2.58;;;21.00;76.00;;;;;;6095156;23;20307;-80
2022/07/21 04:29:57;;;;;;;6.03;2.97;;;21.00;76.00;;;;;;6103296;23;20025;-79
2022/07/21 04:32:24;;;;;;;6.43;2.93;;;21.10;76.10;;;;;;6096129;23;20254;-81
2022/07/21 04:34:49;;;;;;;5.53;2.90;;;21.10;76.20;;;;;;6104229;23;20085;-80
2022/07/21 04:37:15;;;;;;;5.00;2.90;;;21.10;76.00;;;;;;6097855;23;20450;-79
2022/07/21 04:39:41;;;;;;;5.30;3.17;;;21.10;76.20;;;;;;6070130;23;20068;-80
2022/07/21 04:42:06;;;;;;;5.93;3.43;;;21.10;76.00;;;;;;6072842;23;20018;-80
2022/07/21 04:44:32;;;;;;;7.18;3.38;;;21.20;76.20;;;;;;6076264;23;20022;-80
2022/07/21 04:46:58;;;;;;;5.73;3.17;;;21.20;76.20;;;;;;6100393;23;20606;-80
2022/07/21 04:49:23;;;;;;;7.22;3.47;;;21.20;76.20;;;;;;6076277;23;20018;-79
2022/07/21 04:51:49;;;;;;;6.70;3.53;;;21.20;76.20;;;;;;6098552;23;20339;-80
2022/07/21 04:54:15;;;;;;;4.53;3.35;;;21.20;76.30;;;;;;6076474;23;20541;-80
2022/07/21 04:56:43;;;;;;;5.28;3.58;;;21.30;76.30;;;;;;6094024;23;20101;-80
2022/07/21 04:59:10;;;;;;;5.23;3.33;;;21.30;76.50;;;;;;6081004;23;20247;-81
2022/07/21 05:01:37;;;;;;;5.85;3.50;;;21.30;76.30;;;;;;6111054;23;20381;-80
2022/07/21 05:04:02;;;;;;;6.32;3.70;;;21.30;76.40;;;;;;6104613;23;20473;-80
2022/07/21 05:06:28;;;;;;;6.63;4.10;;;21.30;76.40;;;;;;6076462;23;20010;-80
2022/07/21 05:08:54;;;;;;;6.10;4.13;;;21.40;76.50;;;;;;6104884;23;20153;-81
2022/07/21 05:11:19;;;;;;;7.10;4.07;;;21.40;76.40;;;;;;6091131;23;20412;-80
2022/07/21 05:13:45;;;;;;;5.97;3.70;;;21.40;76.40;;;;;;6107700;23;20010;-80
2022/07/21 05:16:11;;;;;;;9.03;4.23;;;21.40;76.50;;;;;;6106018;23;20299;-80
2022/07/21 05:18:36;;;;;;;5.32;3.65;;;21.50;76.60;;;;;;6084749;23;20078;-81
2022/07/21 05:21:02;;;;;;;8.33;4.23;;;21.50;76.60;;;;;;6101438;23;20044;-80
2022/07/21 05:23:28;;;;;;;7.50;3.95;;;21.50;76.60;;;;;;6103546;23;20014;-80
2022/07/21 05:25:53;;;;;;;6.63;4.40;;;21.60;76.80;;;;;;6073723;23;20017;-81
2022/07/21 05:28:19;;;;;;;6.32;4.25;;;21.60;76.60;;;;;;6080371;23;20014;-80
2022/07/21 05:30:44;;;;;;;6.37;3.60;;;21.60;76.60;;;;;;6108512;23;20311;-80
2022/07/21 05:33:10;;;;;;;6.67;3.50;;;21.60;76.60;;;;;;6107756;23;20255;-81
2022/07/21 05:35:35;;;;;;;7.60;4.00;;;21.60;76.50;;;;;;6111996;23;20237;-81
2022/07/21 05:38:02;;;;;;;7.10;4.20;;;21.70;76.40;;;;;;6096659;23;20297;-80
2022/07/21 05:40:27;;;;;;;6.55;4.18;;;21.60;76.30;;;;;;6084183;23;20105;-80
2022/07/21 05:42:53;;;;;;;6.68;3.80;;;21.60;76.20;;;;;;6096766;23;20041;-81
2022/07/21 05:45:18;;;;;;;8.30;4.17;;;21.60;76.10;;;;;;6109820;23;20315;-79
2022/07/21 05:47:44;;;;;;;6.00;4.00;;;21.60;76.20;;;;;;6084038;23;20467;-80
2022/07/21 05:50:10;;;;;;;5.83;4.03;;;21.60;76.30;;;;;;6101512;23;20268;-80
2022/07/21 05:52:36;;;;;;;6.70;4.07;;;21.60;76.30;;;;;;6083874;23;20014;-80
2022/07/21 05:55:03;;;;;;;6.23;3.80;;;21.50;76.40;;;;;;6094152;23;20260;-81
2022/07/21 05:57:29;;;;;;;7.38;3.90;;;21.50;76.30;;;;;;6110347;23;20021;-81
2022/07/21 05:59:55;;;;;;;6.22;3.95;;;21.50;76.10;;;;;;6069031;23;20335;-81
2022/07/21 06:02:21;;;;;;;8.57;3.90;;;21.50;76.30;;;;;;6082609;23;20073;-81
2022/07/21 06:04:47;;;;;;;6.83;3.93;;;21.40;76.30;;;;;;6102839;23;20022;-81
2022/07/21 06:07:12;;;;;;;6.23;3.67;;;21.30;76.20;;;;;;6081508;23;20256;-81
2022/07/21 06:09:38;;;;;;;5.50;3.20;;;21.30;76.40;;;;;;6103343;23;20224;-81
2022/07/21 06:12:04;;;;;;;5.88;3.72;;;21.20;76.50;;;;;;6078094;23;20482;-81
2022/07/21 06:14:29;;;;;;;6.23;3.90;;;21.10;76.70;;;;;;6072190;23;20652;-81
2022/07/21 06:16:55;;;;;;;6.03;3.88;;;21.10;76.80;;;;;;6073279;23;20212;-81
2022/07/21 06:19:20;;;;;;;6.73;3.90;;;21.00;77.00;;;;;;6106142;23;20345;-81
2022/07/21 06:21:46;;;;;;;6.20;4.20;;;20.90;77.30;;;;;;6110360;23;20049;-80
2022/07/21 06:24:12;;;;;;;7.87;4.10;;;20.90;77.70;;;;;;6073196;23;20088;-80
2022/07/21 06:26:41;;;;;;;5.30;3.65;;;20.90;78.00;;;;;;6102748;23;20211;-81
2022/07/21 06:29:06;;;;;;;5.60;3.55;;;20.80;78.20;;;;;;6074154;23;20099;-80
2022/07/21 06:31:33;;;;;;;6.15;3.92;;;20.80;78.30;;;;;;6097959;23;20027;-80
2022/07/21 06:33:59;;;;;;;6.43;4.00;;;20.70;78.60;;;;;;6104275;23;20010;-80
2022/07/21 06:36:25;;;;;;;6.03;3.90;;;20.70;78.60;;;;;;6104756;23;20041;-80
2022/07/21 06:38:50;;;;;;;6.07;3.87;;;20.70;78.90;;;;;;6109882;23;20323;-80
2022/07/21 06:41:16;;;;;;;6.03;3.67;;;20.70;79.00;;;;;;6067141;23;20089;-80
2022/07/21 06:43:41;;;;;;;6.57;4.20;;;20.70;79.10;;;;;;6110023;23;20443;-81
2022/07/21 06:46:07;;;;;;;5.93;3.92;;;20.70;79.40;;;;;;6068666;23;20014;-81
2022/07/21 06:48:33;;;;;;;6.97;4.10;;;20.70;79.50;;;;;;6083839;23;20021;-81
2022/07/21 06:51:00;;;;;;;6.95;4.40;;;20.70;79.40;;;;;;6102420;23;20339;-80
2022/07/21 06:53:27;;;;;;;6.60;4.18;;;20.70;79.50;;;;;;6108442;23;20010;-81
2022/07/21 06:55:53;;;;;;;6.70;3.63;;;20.60;79.70;;;;;;6102428;23;20013;-81
2022/07/21 06:58:22;;;;;;;7.10;4.25;;;20.70;79.80;;;;;;6107086;23;20375;-81
2022/07/21 07:00:48;;;;;;;6.25;3.83;;;20.60;79.80;;;;;;6073182;23;20013;-81
2022/07/21 07:03:15;;;;;;;6.60;3.72;;;20.70;80.00;;;;;;6104029;23;20415;-82
2022/07/21 07:05:42;;;;;;;6.68;4.07;;;20.60;80.20;;;;;;6108128;23;20316;-81
2022/07/21 07:08:08;;;;;;;7.73;3.97;;;20.70;81.40;;;;;;6104537;23;20009;-82
2022/07/21 07:10:34;;;;;;;5.30;3.75;;;20.60;80.60;;;;;;6103232;23;20016;-82
2022/07/21 07:13:01;;;;;;;6.65;4.00;;;20.60;80.80;;;;;;6107129;23;20471;-81
2022/07/21 07:15:27;;;;;;;5.90;3.87;;;20.60;81.60;;;;;;6075542;23;20181;-83
2022/07/21 07:17:53;;;;;;;5.00;3.25;;;20.50;81.80;;;;;;6096751;23;20084;-86
2022/07/21 07:20:19;;;;;;;6.07;3.53;;;20.50;82.30;;;;;;6075682;23;20245;-85
2022/07/21 07:22:45;;;;;;;4.82;3.17;;;20.50;82.70;;;;;;6082905;23;20323;-85
2022/07/21 07:25:11;;;;;;;4.50;3.03;;;20.40;83.20;;;;;;6079198;23;20229;-89
2022/07/21 07:27:37;;;;;;;4.40;3.00;;;20.40;83.70;;;;;;6104406;23;20021;-87
2022/07/21 07:30:06;;;;;;;4.35;3.05;;;20.40;84.30;;;;;;6084583;23;20040;-88
2022/07/21 07:32:31;;;;;;;5.35;3.10;;;20.40;84.80;;;;;;6068957;23;20691;-89
2022/07/21 07:34:57;;;;;;;4.93;3.43;;;20.40;85.50;;;;;;6081309;23;20100;-88
2022/07/21 07:37:22;;;;;;;4.97;3.30;;;20.30;86.10;;;;;;6107479;23;20177;-87
2022/07/21 07:39:48;;;;;;;6.47;4.03;;;20.30;86.80;;;;;;6078408;23;20104;-84
2022/07/21 07:42:14;;;;;;;8.25;4.63;;;20.30;87.10;;;;;;6073673;23;20447;-90
2022/07/21 07:44:39;;;;;;;9.10;5.10;;;20.30;87.80;;;;;;6084063;23;20194;-89
2022/07/21 07:47:05;;;;;;;8.63;5.00;;;20.30;88.30;;;;;;6049818;23;20093;-87
2022/07/21 07:49:31;;;;;;;8.97;5.27;;;20.30;88.90;;;;;;6084187;23;20234;-86
2022/07/21 07:51:58;;;;;;;9.10;5.53;;;20.30;89.40;;;;;;6082250;23;20020;-88
2022/07/21 07:54:24;;;;;;;10.07;5.85;;;20.30;89.90;;;;;;6082710;23;20209;-88
2022/07/21 07:56:50;;;;;;;11.07;6.10;;;20.30;90.10;;;;;;6077438;23;20025;-88
2022/07/21 07:59:16;;;;;;;11.23;6.13;;;20.30;90.30;;;;;;6099917;23;20217;-86
2022/07/21 08:01:42;;;;;;;12.85;6.68;;;20.30;90.60;;;;;;6082547;23;20360;-87
2022/07/21 08:04:08;;;;;;;10.83;5.93;;;20.40;90.80;;;;;;6068148;23;20455;-87
2022/07/21 08:06:33;;;;;;;11.18;6.35;;;20.40;91.00;;;;;;6082595;23;20014;-88
2022/07/21 08:08:59;;;;;;;13.50;6.30;;;20.40;91.10;;;;;;6077078;23;20021;-87
2022/07/21 08:11:25;;;;;;;11.20;5.97;;;20.40;91.30;;;;;;6106756;23;20527;-88
2022/07/21 08:13:51;;;;;;;10.50;6.13;;;20.40;91.50;;;;;;6102847;23;20257;-87
2022/07/21 08:16:17;;;;;;;10.20;6.17;;;20.40;91.70;;;;;;6075596;23;20156;-86
2022/07/21 08:18:43;;;;;;;9.52;5.88;;;20.50;91.80;;;;;;6073240;23;20010;-87
2022/07/21 08:21:10;;;;;;;9.48;5.78;;;20.50;92.00;;;;;;6075731;23;20655;-88
2022/07/21 08:23:36;;;;;;;10.02;5.45;;;20.50;92.10;;;;;;6110348;23;20021;-89
2022/07/21 08:26:02;;;;;;;6.77;4.40;;;20.50;92.30;;;;;;6106229;23;20089;-88
2022/07/21 08:28:28;;;;;;;7.03;4.30;;;20.50;92.50;;;;;;6078059;23;20519;-87
2022/07/21 08:30:53;;;;;;;6.25;4.00;;;20.60;92.60;;;;;;6083514;23;20029;-87
2022/07/21 08:33:19;;;;;;;6.33;4.10;;;20.60;92.70;;;;;;6071397;23;20261;-88
2022/07/21 08:35:45;;;;;;;6.63;4.10;;;20.60;92.80;;;;;;6079635;23;20036;-87
2022/07/21 08:38:11;;;;;;;5.50;3.90;;;20.60;92.90;;;;;;6079541;23;20251;-88
2022/07/21 08:40:41;;;;;;;6.40;4.38;;;20.60;93.00;;;;;;6109151;23;20014;-89
2022/07/21 08:43:08;;;;;;;6.05;3.95;;;20.60;93.10;;;;;;6099229;23;20065;-90
2022/07/21 08:45:34;;;;;;;5.15;3.78;;;20.60;93.30;;;;;;6070773;23;20038;-89
2022/07/21 08:48:01;;;;;;;4.95;3.53;;;20.60;93.70;;;;;;6107890;23;20185;-88
2022/07/21 08:50:36;;;;;;;4.53;3.27;;;20.60;93.50;;;;;;6100291;23;20089;-89
2022/07/21 08:53:02;;;;;;;5.05;3.42;;;20.70;93.70;;;;;;6077528;23;20276;-88
2022/07/21 08:55:33;;;;;;;6.70;3.72;;;20.70;93.80;;;;;;6083763;23;20040;-87
2022/07/21 08:57:59;;;;;;;6.03;3.72;;;20.70;94.00;;;;;;6081661;23;20096;-88
2022/07/21 09:00:25;;;;;;;6.20;4.03;;;20.70;94.00;;;;;;6103439;23;20010;-87
2022/07/21 09:03:17;;;;;;;5.80;4.00;;;20.70;94.20;;;;;;6075058;23;20313;-89
2022/07/21 09:05:58;;;;;;;6.40;4.15;;;20.70;94.30;;;;;;6070335;23;20022;-86
2022/07/21 09:08:51;;;;;;;6.70;4.47;;;20.70;94.40;;;;;;6110607;23;20025;-85
2022/07/21 09:11:20;;;;;;;7.35;3.85;;;20.70;94.40;;;;;;6105489;23;20026;-87
2022/07/21 09:13:51;;;;;;;6.40;4.60;;;20.70;94.40;;;;;;6079880;23;20258;-87
2022/07/21 09:16:37;;;;;;;6.87;4.40;;;20.80;94.40;;;;;;6070149;23;20127;-87
2022/07/21 09:19:05;;;;;;;7.57;4.45;;;20.70;94.50;;;;;;6062211;23;20327;-87
2022/07/21 09:21:34;;;;;;;7.10;4.93;;;20.70;94.60;;;;;;6099179;23;20076;-85
2022/07/21 09:24:12;;;;;;;7.70;5.10;;;20.70;94.60;;;;;;6077803;23;20362;-88
2022/07/21 09:26:57;;;;;;;7.82;5.40;;;20.70;94.70;;;;;;6084339;23;20036;-87
2022/07/21 09:29:23;;;;;;;7.63;5.33;;;20.70;94.70;;;;;;6080937;23;20200;-85
2022/07/21 09:31:49;;;;;;;7.28;5.28;;;20.70;94.80;;;;;;6078664;23;20474;-85
2022/07/21 09:34:15;;;;;;;8.60;5.40;;;20.70;95.00;;;;;;6106685;23;20314;-85
2022/07/21 09:36:56;;;;;;;8.73;5.40;;;20.60;95.10;;;;;;6098376;23;20018;-86
2022/07/21 09:39:44;;;;;;;8.18;5.15;;;20.70;95.20;;;;;;6101085;23;20445;-85
2022/07/21 09:42:26;;;;;;;6.65;4.50;;;20.60;95.30;;;;;;6106330;23;20010;-83
2022/07/21 09:44:57;;;;;;;6.72;4.60;;;20.70;95.50;;;;;;6078889;23;20093;-84
2022/07/21 09:47:26;;;;;;;7.20;4.40;;;20.70;95.60;;;;;;6074413;23;20014;-85
2022/07/21 09:49:52;;;;;;;6.45;4.28;;;20.70;95.90;;;;;;6082853;23;20021;-84
2022/07/21 09:52:29;;;;;;;7.55;4.50;;;20.70;96.20;;;;;;6068428;23;20323;-86
2022/07/21 09:54:59;;;;;;;6.65;3.90;;;20.70;96.20;;;;;;6083614;23;20016;-84
2022/07/21 09:57:26;;;;;;;8.23;4.00;;;20.80;96.50;;;;;;6080964;23;20203;-86
2022/07/21 09:59:51;;;;;;;5.87;3.70;;;20.80;96.60;;;;;;6104471;23;20014;-85
2022/07/21 10:02:26;;;;;;;7.45;4.10;;;20.90;96.80;;;;;;6072710;23;20264;-85
2022/07/21 10:04:58;;;;;;;5.60;4.07;;;21.00;97.00;;;;;;6109365;23;20088;-84
2022/07/21 10:07:26;;;;;;;5.68;4.25;;;21.10;96.90;;;;;;6070495;23;20851;-85
2022/07/21 10:09:52;;;;;;;5.73;4.07;;;21.10;97.20;;;;;;6084058;23;20459;-86
2022/07/21 10:12:19;;;;;;;5.95;3.70;;;21.20;97.50;;;;;;6074102;23;20291;-86
2022/07/21 10:14:46;;;;;;;6.70;3.92;;;21.30;97.90;;;;;;6083577;23;20014;-85
2022/07/21 10:17:13;;;;;;;5.57;4.22;;;21.40;98.30;;;;;;6073861;23;20017;-84
2022/07/21 10:19:51;;;;;;;6.82;3.70;;;21.50;99.00;;;;;;6078910;23;20013;-84
2022/07/21 10:22:33;;;;;;;6.73;4.00;;;21.70;99.00;;;;;;6078657;23;20014;-84
2022/07/21 10:25:00;;;;;;;6.18;3.70;;;21.90;99.30;;;;;;6070337;23;20014;-84
2022/07/21 10:27:26;;;;;;;4.85;3.70;;;22.20;99.20;;;;;;6076832;23;20040;-85
2022/07/21 10:29:56;;;;;;;7.40;4.17;;;22.30;98.80;;;;;;6083430;23;20100;-83
2022/07/21 10:32:36;;;;;;;5.80;3.90;;;22.40;98.20;;;;;;6068387;23;20045;-86
2022/07/21 10:35:26;;;;;;;5.30;3.50;;;22.50;97.50;;;;;;6105663;23;20065;-83
2022/07/21 10:37:52;;;;;;;6.43;3.88;;;22.50;96.40;;;;;;6083479;23;20391;-84
2022/07/21 10:40:21;;;;;;;5.93;3.58;;;22.50;96.60;;;;;;6063453;23;20301;-84
2022/07/21 10:42:59;;;;;;;7.47;3.70;;;22.40;96.10;;;;;;6082996;23;20392;-84
2022/07/21 10:45:37;;;;;;;7.20;4.05;;;22.40;95.30;;;;;;6105774;23;20287;-84
2022/07/21 10:48:05;;;;;;;5.18;3.75;;;22.30;95.40;;;;;;6094735;23;20058;-85
2022/07/21 10:50:39;;;;;;;6.72;3.83;;;22.20;95.90;;;;;;6057161;23;20057;-84
2022/07/21 10:53:13;;;;;;;6.22;3.97;;;22.10;95.60;;;;;;6108729;23;20014;-82
2022/07/21 10:55:47;;;;;;;6.23;4.00;;;22.00;96.10;;;;;;6095486;23;20081;-85
2022/07/21 10:58:31;;;;;;;6.40;3.63;;;22.00;95.80;;;;;;6108874;23;20006;-85
2022/07/21 11:00:58;;;;;;;7.07;4.00;;;21.90;95.70;;;;;;6106387;23;20032;-83
2022/07/21 11:03:31;;;;;;;8.60;3.55;;;21.90;96.30;;;;;;6076379;23;20024;-82
2022/07/21 11:06:09;;;;;;;6.03;3.85;;;21.90;96.20;;;;;;6106902;23;20079;-85
2022/07/21 11:08:46;;;;;;;6.90;3.63;;;21.90;96.30;;;;;;6075551;23;20014;-82
2022/07/21 11:11:16;;;;;;;4.85;3.22;;;21.90;96.10;;;;;;6071671;23;20335;-84
2022/07/21 11:14:03;;;;;;;5.00;3.40;;;21.80;96.50;;;;;;6073139;23;20018;-83
2022/07/21 11:16:48;;;;;;;3.88;2.95;;;21.80;96.00;;;;;;6107588;23;20036;-83
2022/07/21 11:19:38;;;;;;;4.20;3.10;;;21.80;96.10;;;;;;6077056;23;20018;-83
2022/07/21 11:22:14;;;;;;;4.97;2.83;;;21.80;95.50;;;;;;6080292;23;20018;-82
2022/07/21 11:24:42;;;;;;;4.15;2.97;;;21.70;96.10;;;;;;6070094;23;20029;-83
2022/07/21 11:27:11;;;;;;;5.63;3.20;;;21.70;96.40;;;;;;6082645;23;20018;-82
2022/07/21 11:29:39;;;;;;;5.13;3.13;;;21.70;96.40;;;;;;6099668;23;20009;-83
2022/07/21 11:32:06;;;;;;;4.43;2.85;;;21.60;96.30;;;;;;6081751;23;20048;-84
2022/07/21 11:34:51;;;;;;;4.73;2.90;;;21.60;96.40;;;;;;6101144;23;20010;-83
2022/07/21 11:37:35;;;;;;;4.70;2.90;;;21.60;96.00;;;;;;6108649;23;20423;-85
2022/07/21 11:40:02;;;;;;;5.47;2.80;;;21.50;96.00;;;;;;6078771;23;20380;-83
2022/07/21 11:42:30;;;;;;;4.95;3.28;;;21.50;96.30;;;;;;6071183;23;20014;-85
2022/07/21 11:44:56;;;;;;;4.53;2.85;;;21.50;96.30;;;;;;6074409;23;20151;-83
2022/07/21 11:47:25;;;;;;;5.40;2.90;;;21.40;96.40;;;;;;6081783;23;20048;-83
2022/07/21 11:49:55;;;;;;;4.75;2.75;;;21.40;96.50;;;;;;6099345;23;20414;-84
2022/07/21 11:52:27;;;;;;;5.88;2.95;;;21.40;96.70;;;;;;6108373;23;20014;-84
2022/07/21 11:54:54;;;;;;;4.45;2.75;;;21.30;96.80;;;;;;6078880;23;20263;-84
2022/07/21 11:57:22;;;;;;;4.57;2.63;;;21.30;97.10;;;;;;6096114;23;20010;-83
2022/07/21 11:59:49;;;;;;;3.97;2.33;;;21.30;97.30;;;;;;6077762;23;20351;-83
2022/07/21 12:02:23;;;;;;;4.45;2.58;;;21.30;97.30;;;;;;6081798;23;20022;-86
2022/07/21 12:04:56;;;;;;;3.85;2.70;;;21.30;97.30;;;;;;6077644;23;20346;-84
2022/07/21 12:07:33;;;;;;;5.30;3.00;;;21.30;97.20;;;;;;6100317;23;20493;-83
2022/07/21 12:10:12;;;;;;;5.10;3.35;;;21.40;97.40;;;;;;6106699;23;20235;-84
2022/07/21 12:12:42;;;;;;;5.53;3.00;;;21.40;97.20;;;;;;6094236;23;20324;-86
2022/07/21 12:15:31;;;;;;;5.15;3.00;;;21.40;97.40;;;;;;6082243;23;20068;-85
2022/07/21 12:17:59;;;;;;;5.00;3.03;;;21.40;97.00;;;;;;6079206;23;20408;-84
2022/07/21 12:20:29;;;;;;;5.78;2.95;;;21.40;97.40;;;;;;6104956;23;20028;-83
2022/07/21 12:22:57;;;;;;;4.40;2.90;;;21.40;97.40;;;;;;6101291;23;20208;-84
2022/07/21 12:25:34;;;;;;;5.27;3.00;;;21.40;97.60;;;;;;6082133;23;20021;-83
2022/07/21 12:28:01;;;;;;;5.55;2.60;;;21.40;97.30;;;;;;6093662;23;20116;-84
2022/07/21 12:30:38;;;;;;;5.63;2.90;;;21.40;97.70;;;;;;6081156;23;20013;-83
2022/07/21 12:33:11;;;;;;;4.30;2.55;;;21.40;97.50;;;;;;6074010;23;20346;-82
2022/07/21 12:35:39;;;;;;;3.53;2.67;;;21.40;97.80;;;;;;6078389;23;20597;-83
2022/07/21 12:38:16;;;;;;;5.17;2.67;;;21.50;98.00;;;;;;6075016;23;20495;-84
2022/07/21 12:40:47;;;;;;;4.15;2.53;;;21.50;97.70;;;;;;6103876;23;20089;-84
2022/07/21 12:43:19;;;;;;;3.50;2.35;;;21.50;97.80;;;;;;6097774;23;20014;-84
2022/07/21 12:46:11;;;;;;;4.20;2.55;;;21.50;97.80;;;;;;6077750;23;20025;-86
2022/07/21 12:48:38;;;;;;;4.38;2.40;;;21.50;98.00;;;;;;6101009;23;20459;-83
2022/07/21 12:51:13;;;;;;;4.03;2.43;;;21.60;98.00;;;;;;6106495;23;20014;-84
2022/07/21 12:53:53;;;;;;;3.33;2.40;;;21.60;97.80;;;;;;6072689;23;20017;-85